sensor_id;sensor_type;location;lat;lon;timestamp;pressure;altitude;pressure_sealevel;temperature
75822;BMP180;64454;51.984;9.838;2022-11-09T00:02:16;99420.00;;;15.20
75822;BMP180;64454;51.984;9.838;2022-11-09T00:04:44;99427.00;;;15.00
75822;BMP180;64454;51.984;9.838;2022-11-09T00:07:11;99416.00;;;15.00
75822;BMP180;64454;51.984;9.838;2022-11-09T00:09:37;99420.00;;;15.10
75822;BMP180;64454;51.984;9.838;2022-11-09T00:12:07;99428.00;;;15.00
75822;BMP180;64454;51.984;9.838;2022-11-09T00:14:34;99425.00;;;15.00
75822;BMP180;64454;51.984;9.838;2022-11-09T00:17:01;99425.00;;;14.80
75822;BMP180;64454;51.984;9.838;2022-11-09T00:19:28;99428.00;;;15.00
75822;BMP180;64454;51.984;9.838;2022-11-09T00:21:55;99429.00;;;15.10
75822;BMP180;64454;51.984;9.838;2022-11-09T00:24:22;99421.00;;;14.80
75822;BMP180;64454;51.984;9.838;2022-11-09T00:26:49;99420.00;;;15.00
75822;BMP180;64454;51.984;9.838;2022-11-09T00:29:18;99420.00;;;15.00
75822;BMP180;64454;51.984;9.838;2022-11-09T00:31:45;99412.00;;;14.90
75822;BMP180;64454;51.984;9.838;2022-11-09T00:34:12;99411.00;;;14.70
75822;BMP180;64454;51.984;9.838;2022-11-09T00:36:39;99412.00;;;14.60
75822;BMP180;64454;51.984;9.838;2022-11-09T00:39:07;99413.00;;;14.70
75822;BMP180;64454;51.984;9.838;2022-11-09T00:41:34;99408.00;;;14.60
75822;BMP180;64454;51.984;9.838;2022-11-09T00:44:02;99421.00;;;14.60
75822;BMP180;64454;51.984;9.838;2022-11-09T00:46:31;99397.00;;;14.50
75822;BMP180;64454;51.984;9.838;2022-11-09T00:48:58;99396.00;;;14.70
75822;BMP180;64454;51.984;9.838;2022-11-09T00:51:25;99403.00;;;14.70
75822;BMP180;64454;51.984;9.838;2022-11-09T00:53:52;99391.00;;;14.60
75822;BMP180;64454;51.984;9.838;2022-11-09T00:56:20;99402.00;;;14.70
75822;BMP180;64454;51.984;9.838;2022-11-09T00:58:47;99407.00;;;14.70
75822;BMP180;64454;51.984;9.838;2022-11-09T01:01:16;99403.00;;;14.70
75822;BMP180;64454;51.984;9.838;2022-11-09T01:03:45;99396.00;;;14.70
75822;BMP180;64454;51.984;9.838;2022-11-09T01:06:14;99407.00;;;14.70
75822;BMP180;64454;51.984;9.838;2022-11-09T01:08:42;99414.00;;;14.80
75822;BMP180;64454;51.984;9.838;2022-11-09T01:11:11;99414.00;;;14.90
75822;BMP180;64454;51.984;9.838;2022-11-09T01:13:39;99407.00;;;14.90
75822;BMP180;64454;51.984;9.838;2022-11-09T01:16:10;99401.00;;;14.90
75822;BMP180;64454;51.984;9.838;2022-11-09T01:18:39;99404.00;;;14.90
75822;BMP180;64454;51.984;9.838;2022-11-09T01:21:10;99397.00;;;14.90
75822;BMP180;64454;51.984;9.838;2022-11-09T01:23:38;99401.00;;;14.90
75822;BMP180;64454;51.984;9.838;2022-11-09T01:26:11;99393.00;;;14.80
75822;BMP180;64454;51.984;9.838;2022-11-09T01:28:38;99393.00;;;14.80
75822;BMP180;64454;51.984;9.838;2022-11-09T01:31:13;99394.00;;;15.00
75822;BMP180;64454;51.984;9.838;2022-11-09T01:33:41;99399.00;;;15.00
75822;BMP180;64454;51.984;9.838;2022-11-09T01:36:13;99398.00;;;14.90
75822;BMP180;64454;51.984;9.838;2022-11-09T01:38:41;99402.00;;;14.90
75822;BMP180;64454;51.984;9.838;2022-11-09T01:41:14;99397.00;;;14.70
75822;BMP180;64454;51.984;9.838;2022-11-09T01:43:41;99392.00;;;14.90
75822;BMP180;64454;51.984;9.838;2022-11-09T01:46:19;99400.00;;;14.80
75822;BMP180;64454;51.984;9.838;2022-11-09T01:48:53;99396.00;;;14.80
75822;BMP180;64454;51.984;9.838;2022-11-09T01:51:28;99407.00;;;14.90
75822;BMP180;64454;51.984;9.838;2022-11-09T01:54:02;99406.00;;;14.80
75822;BMP180;64454;51.984;9.838;2022-11-09T01:56:31;99412.00;;;14.90
75822;BMP180;64454;51.984;9.838;2022-11-09T01:59:03;99410.00;;;14.80
75822;BMP180;64454;51.984;9.838;2022-11-09T02:01:32;99409.00;;;14.80
75822;BMP180;64454;51.984;9.838;2022-11-09T02:04:06;99403.00;;;14.90
75822;BMP180;64454;51.984;9.838;2022-11-09T02:06:35;99413.00;;;14.80
75822;BMP180;64454;51.984;9.838;2022-11-09T02:09:09;99406.00;;;14.90
75822;BMP180;64454;51.984;9.838;2022-11-09T02:11:38;99413.00;;;15.00
75822;BMP180;64454;51.984;9.838;2022-11-09T02:14:06;99410.00;;;15.00
75822;BMP180;64454;51.984;9.838;2022-11-09T02:16:34;99408.00;;;14.90
75822;BMP180;64454;51.984;9.838;2022-11-09T02:19:01;99415.00;;;15.00
75822;BMP180;64454;51.984;9.838;2022-11-09T02:21:31;99414.00;;;15.00
75822;BMP180;64454;51.984;9.838;2022-11-09T02:23:59;99403.00;;;15.00
75822;BMP180;64454;51.984;9.838;2022-11-09T02:26:30;99408.00;;;15.00
75822;BMP180;64454;51.984;9.838;2022-11-09T02:29:03;99402.00;;;14.90
75822;BMP180;64454;51.984;9.838;2022-11-09T02:31:35;99406.00;;;14.90
75822;BMP180;64454;51.984;9.838;2022-11-09T02:34:07;99405.00;;;14.90
75822;BMP180;64454;51.984;9.838;2022-11-09T02:36:36;99415.00;;;14.80
75822;BMP180;64454;51.984;9.838;2022-11-09T02:39:04;99408.00;;;14.80
75822;BMP180;64454;51.984;9.838;2022-11-09T02:41:36;99408.00;;;14.80
75822;BMP180;64454;51.984;9.838;2022-11-09T02:44:05;99411.00;;;14.70
75822;BMP180;64454;51.984;9.838;2022-11-09T02:46:35;99411.00;;;14.80
75822;BMP180;64454;51.984;9.838;2022-11-09T02:49:03;99415.00;;;14.90
75822;BMP180;64454;51.984;9.838;2022-11-09T02:51:31;99407.00;;;14.90
75822;BMP180;64454;51.984;9.838;2022-11-09T02:53:59;99407.00;;;14.70
75822;BMP180;64454;51.984;9.838;2022-11-09T02:56:26;99412.00;;;14.80
75822;BMP180;64454;51.984;9.838;2022-11-09T02:58:53;99403.00;;;14.70
75822;BMP180;64454;51.984;9.838;2022-11-09T03:01:20;99398.00;;;14.60
75822;BMP180;64454;51.984;9.838;2022-11-09T03:03:47;99407.00;;;14.70
75822;BMP180;64454;51.984;9.838;2022-11-09T03:06:14;99403.00;;;14.70
75822;BMP180;64454;51.984;9.838;2022-11-09T03:08:41;99399.00;;;14.60
75822;BMP180;64454;51.984;9.838;2022-11-09T03:11:10;99405.00;;;14.50
75822;BMP180;64454;51.984;9.838;2022-11-09T03:13:36;99401.00;;;14.60
75822;BMP180;64454;51.984;9.838;2022-11-09T03:16:05;99410.00;;;14.50
75822;BMP180;64454;51.984;9.838;2022-11-09T03:18:32;99403.00;;;14.60
75822;BMP180;64454;51.984;9.838;2022-11-09T03:21:04;99413.00;;;14.40
75822;BMP180;64454;51.984;9.838;2022-11-09T03:23:32;99400.00;;;14.40
75822;BMP180;64454;51.984;9.838;2022-11-09T03:25:59;99403.00;;;14.40
75822;BMP180;64454;51.984;9.838;2022-11-09T03:28:27;99390.00;;;14.40
75822;BMP180;64454;51.984;9.838;2022-11-09T03:30:54;99387.00;;;14.40
75822;BMP180;64454;51.984;9.838;2022-11-09T03:33:21;99389.00;;;14.40
75822;BMP180;64454;51.984;9.838;2022-11-09T03:35:49;99382.00;;;14.30
75822;BMP180;64454;51.984;9.838;2022-11-09T03:38:16;99366.00;;;14.30
75822;BMP180;64454;51.984;9.838;2022-11-09T03:40:43;99373.00;;;14.10
75822;BMP180;64454;51.984;9.838;2022-11-09T03:43:10;99372.00;;;14.20
75822;BMP180;64454;51.984;9.838;2022-11-09T03:45:38;99390.00;;;14.10
75822;BMP180;64454;51.984;9.838;2022-11-09T03:48:05;99406.00;;;14.30
75822;BMP180;64454;51.984;9.838;2022-11-09T03:50:34;99403.00;;;14.10
75822;BMP180;64454;51.984;9.838;2022-11-09T03:53:06;99399.00;;;14.40
75822;BMP180;64454;51.984;9.838;2022-11-09T03:55:34;99398.00;;;14.20
75822;BMP180;64454;51.984;9.838;2022-11-09T03:58:02;99392.00;;;14.10
75822;BMP180;64454;51.984;9.838;2022-11-09T04:00:30;99387.00;;;14.20
75822;BMP180;64454;51.984;9.838;2022-11-09T04:02:58;99388.00;;;14.10
75822;BMP180;64454;51.984;9.838;2022-11-09T04:05:25;99389.00;;;14.10
75822;BMP180;64454;51.984;9.838;2022-11-09T04:07:54;99396.00;;;14.00
75822;BMP180;64454;51.984;9.838;2022-11-09T04:10:23;99390.00;;;14.10
75822;BMP180;64454;51.984;9.838;2022-11-09T04:12:51;99393.00;;;13.90
75822;BMP180;64454;51.984;9.838;2022-11-09T04:15:18;99399.00;;;14.00
75822;BMP180;64454;51.984;9.838;2022-11-09T04:17:54;99386.00;;;14.10
75822;BMP180;64454;51.984;9.838;2022-11-09T04:20:23;99395.00;;;14.10
75822;BMP180;64454;51.984;9.838;2022-11-09T04:22:54;99388.00;;;14.10
75822;BMP180;64454;51.984;9.838;2022-11-09T04:25:22;99382.00;;;14.20
75822;BMP180;64454;51.984;9.838;2022-11-09T04:27:54;99396.00;;;14.00
75822;BMP180;64454;51.984;9.838;2022-11-09T04:30:21;99396.00;;;13.90
75822;BMP180;64454;51.984;9.838;2022-11-09T04:32:48;99393.00;;;14.10
75822;BMP180;64454;51.984;9.838;2022-11-09T04:35:15;99392.00;;;14.00
75822;BMP180;64454;51.984;9.838;2022-11-09T04:37:51;99380.00;;;13.90
75822;BMP180;64454;51.984;9.838;2022-11-09T04:40:18;99396.00;;;14.00
75822;BMP180;64454;51.984;9.838;2022-11-09T04:42:45;99394.00;;;14.00
75822;BMP180;64454;51.984;9.838;2022-11-09T04:45:12;99393.00;;;14.00
75822;BMP180;64454;51.984;9.838;2022-11-09T04:47:39;99394.00;;;13.90
75822;BMP180;64454;51.984;9.838;2022-11-09T04:50:07;99402.00;;;13.80
75822;BMP180;64454;51.984;9.838;2022-11-09T04:52:34;99406.00;;;13.90
75822;BMP180;64454;51.984;9.838;2022-11-09T04:55:04;99406.00;;;14.00
75822;BMP180;64454;51.984;9.838;2022-11-09T04:57:31;99401.00;;;14.10
75822;BMP180;64454;51.984;9.838;2022-11-09T04:59:58;99403.00;;;14.00
75822;BMP180;64454;51.984;9.838;2022-11-09T05:02:25;99409.00;;;14.00
75822;BMP180;64454;51.984;9.838;2022-11-09T05:04:52;99400.00;;;14.10
75822;BMP180;64454;51.984;9.838;2022-11-09T05:07:19;99402.00;;;14.00
75822;BMP180;64454;51.984;9.838;2022-11-09T05:09:46;99412.00;;;14.00
75822;BMP180;64454;51.984;9.838;2022-11-09T05:12:14;99397.00;;;14.10
75822;BMP180;64454;51.984;9.838;2022-11-09T05:14:41;99416.00;;;14.00
75822;BMP180;64454;51.984;9.838;2022-11-09T05:17:08;99404.00;;;13.90
75822;BMP180;64454;51.984;9.838;2022-11-09T05:19:35;99402.00;;;13.90
75822;BMP180;64454;51.984;9.838;2022-11-09T05:22:02;99409.00;;;13.90
75822;BMP180;64454;51.984;9.838;2022-11-09T05:24:43;99397.00;;;14.10
75822;BMP180;64454;51.984;9.838;2022-11-09T05:27:10;99400.00;;;14.00
75822;BMP180;64454;51.984;9.838;2022-11-09T05:29:38;99389.00;;;14.10
75822;BMP180;64454;51.984;9.838;2022-11-09T05:32:05;99405.00;;;14.00
75822;BMP180;64454;51.984;9.838;2022-11-09T05:34:32;99415.00;;;14.00
75822;BMP180;64454;51.984;9.838;2022-11-09T05:36:59;99402.00;;;13.90
75822;BMP180;64454;51.984;9.838;2022-11-09T05:39:26;99401.00;;;13.90
75822;BMP180;64454;51.984;9.838;2022-11-09T05:41:53;99409.00;;;14.00
75822;BMP180;64454;51.984;9.838;2022-11-09T05:44:19;99407.00;;;14.00
75822;BMP180;64454;51.984;9.838;2022-11-09T05:46:48;99402.00;;;13.70
75822;BMP180;64454;51.984;9.838;2022-11-09T05:49:15;99399.00;;;13.90
75822;BMP180;64454;51.984;9.838;2022-11-09T05:51:42;99406.00;;;13.80
75822;BMP180;64454;51.984;9.838;2022-11-09T05:54:09;99414.00;;;13.70
75822;BMP180;64454;51.984;9.838;2022-11-09T05:56:36;99411.00;;;13.70
75822;BMP180;64454;51.984;9.838;2022-11-09T05:59:03;99414.00;;;13.70
75822;BMP180;64454;51.984;9.838;2022-11-09T06:01:30;99417.00;;;13.80
75822;BMP180;64454;51.984;9.838;2022-11-09T06:03:59;99415.00;;;13.60
75822;BMP180;64454;51.984;9.838;2022-11-09T06:06:26;99419.00;;;13.70
75822;BMP180;64454;51.984;9.838;2022-11-09T06:08:54;99427.00;;;13.70
75822;BMP180;64454;51.984;9.838;2022-11-09T06:11:21;99429.00;;;13.70
75822;BMP180;64454;51.984;9.838;2022-11-09T06:13:48;99412.00;;;13.70
75822;BMP180;64454;51.984;9.838;2022-11-09T06:16:15;99429.00;;;13.80
75822;BMP180;64454;51.984;9.838;2022-11-09T06:18:42;99416.00;;;13.70
75822;BMP180;64454;51.984;9.838;2022-11-09T06:21:10;99419.00;;;13.70
75822;BMP180;64454;51.984;9.838;2022-11-09T06:23:37;99413.00;;;13.60
75822;BMP180;64454;51.984;9.838;2022-11-09T06:26:07;99415.00;;;13.60
75822;BMP180;64454;51.984;9.838;2022-11-09T06:28:35;99408.00;;;13.70
75822;BMP180;64454;51.984;9.838;2022-11-09T06:31:05;99411.00;;;13.60
75822;BMP180;64454;51.984;9.838;2022-11-09T06:33:34;99427.00;;;13.80
75822;BMP180;64454;51.984;9.838;2022-11-09T06:36:02;99422.00;;;13.70
75822;BMP180;64454;51.984;9.838;2022-11-09T06:38:31;99424.00;;;13.70
75822;BMP180;64454;51.984;9.838;2022-11-09T06:40:59;99431.00;;;13.70
75822;BMP180;64454;51.984;9.838;2022-11-09T06:43:27;99430.00;;;13.70
75822;BMP180;64454;51.984;9.838;2022-11-09T06:45:55;99434.00;;;13.90
75822;BMP180;64454;51.984;9.838;2022-11-09T06:48:22;99440.00;;;13.70
75822;BMP180;64454;51.984;9.838;2022-11-09T06:50:49;99445.00;;;13.80
75822;BMP180;64454;51.984;9.838;2022-11-09T06:53:17;99435.00;;;13.80
75822;BMP180;64454;51.984;9.838;2022-11-09T06:55:45;99441.00;;;13.70
75822;BMP180;64454;51.984;9.838;2022-11-09T06:58:14;99448.00;;;13.70
75822;BMP180;64454;51.984;9.838;2022-11-09T07:00:42;99442.00;;;13.80
75822;BMP180;64454;51.984;9.838;2022-11-09T07:03:13;99452.00;;;13.80
75822;BMP180;64454;51.984;9.838;2022-11-09T07:05:41;99450.00;;;13.80
75822;BMP180;64454;51.984;9.838;2022-11-09T07:08:09;99446.00;;;13.90
75822;BMP180;64454;51.984;9.838;2022-11-09T07:10:36;99454.00;;;14.00
75822;BMP180;64454;51.984;9.838;2022-11-09T07:13:06;99453.00;;;13.90
75822;BMP180;64454;51.984;9.838;2022-11-09T07:15:34;99454.00;;;14.00
75822;BMP180;64454;51.984;9.838;2022-11-09T07:18:05;99454.00;;;14.10
75822;BMP180;64454;51.984;9.838;2022-11-09T07:20:33;99446.00;;;14.00
75822;BMP180;64454;51.984;9.838;2022-11-09T07:23:00;99451.00;;;14.00
75822;BMP180;64454;51.984;9.838;2022-11-09T07:25:28;99448.00;;;14.10
75822;BMP180;64454;51.984;9.838;2022-11-09T07:28:01;99447.00;;;14.00
75822;BMP180;64454;51.984;9.838;2022-11-09T07:30:29;99451.00;;;14.20
75822;BMP180;64454;51.984;9.838;2022-11-09T07:32:56;99438.00;;;14.20
75822;BMP180;64454;51.984;9.838;2022-11-09T07:35:24;99441.00;;;14.10
75822;BMP180;64454;51.984;9.838;2022-11-09T07:37:51;99443.00;;;14.10
75822;BMP180;64454;51.984;9.838;2022-11-09T07:40:19;99437.00;;;14.40
75822;BMP180;64454;51.984;9.838;2022-11-09T07:42:46;99443.00;;;14.20
75822;BMP180;64454;51.984;9.838;2022-11-09T07:45:13;99442.00;;;14.20
75822;BMP180;64454;51.984;9.838;2022-11-09T07:47:41;99439.00;;;14.70
75822;BMP180;64454;51.984;9.838;2022-11-09T07:50:09;99453.00;;;15.10
75822;BMP180;64454;51.984;9.838;2022-11-09T07:52:36;99447.00;;;15.10
75822;BMP180;64454;51.984;9.838;2022-11-09T07:55:04;99460.00;;;15.10
75822;BMP180;64454;51.984;9.838;2022-11-09T07:57:31;99468.00;;;15.50
75822;BMP180;64454;51.984;9.838;2022-11-09T07:59:58;99473.00;;;15.30
75822;BMP180;64454;51.984;9.838;2022-11-09T08:02:25;99465.00;;;15.10
75822;BMP180;64454;51.984;9.838;2022-11-09T08:04:53;99476.00;;;15.10
75822;BMP180;64454;51.984;9.838;2022-11-09T08:07:20;99468.00;;;15.00
75822;BMP180;64454;51.984;9.838;2022-11-09T08:09:48;99461.00;;;15.10
75822;BMP180;64454;51.984;9.838;2022-11-09T08:12:15;99464.00;;;15.10
75822;BMP180;64454;51.984;9.838;2022-11-09T08:14:42;99463.00;;;15.10
75822;BMP180;64454;51.984;9.838;2022-11-09T08:17:08;99461.00;;;14.90
75822;BMP180;64454;51.984;9.838;2022-11-09T08:19:35;99465.00;;;14.90
75822;BMP180;64454;51.984;9.838;2022-11-09T08:22:04;99457.00;;;14.90
75822;BMP180;64454;51.984;9.838;2022-11-09T08:24:30;99454.00;;;15.10
75822;BMP180;64454;51.984;9.838;2022-11-09T08:26:57;99459.00;;;15.10
75822;BMP180;64454;51.984;9.838;2022-11-09T08:29:24;99459.00;;;14.90
75822;BMP180;64454;51.984;9.838;2022-11-09T08:31:51;99460.00;;;15.00
75822;BMP180;64454;51.984;9.838;2022-11-09T08:34:18;99463.00;;;15.10
75822;BMP180;64454;51.984;9.838;2022-11-09T08:36:45;99449.00;;;14.90
75822;BMP180;64454;51.984;9.838;2022-11-09T08:39:13;99454.00;;;14.70
75822;BMP180;64454;51.984;9.838;2022-11-09T08:41:40;99458.00;;;15.00
75822;BMP180;64454;51.984;9.838;2022-11-09T08:44:07;99468.00;;;15.00
75822;BMP180;64454;51.984;9.838;2022-11-09T08:46:34;99468.00;;;15.00
75822;BMP180;64454;51.984;9.838;2022-11-09T08:49:01;99482.00;;;15.20
75822;BMP180;64454;51.984;9.838;2022-11-09T08:51:28;99474.00;;;15.40
75822;BMP180;64454;51.984;9.838;2022-11-09T08:53:55;99464.00;;;15.20
75822;BMP180;64454;51.984;9.838;2022-11-09T08:56:23;99473.00;;;14.90
75822;BMP180;64454;51.984;9.838;2022-11-09T08:58:50;99469.00;;;15.00
75822;BMP180;64454;51.984;9.838;2022-11-09T09:01:17;99464.00;;;15.20
75822;BMP180;64454;51.984;9.838;2022-11-09T09:03:44;99459.00;;;15.30
75822;BMP180;64454;51.984;9.838;2022-11-09T09:06:12;99460.00;;;15.70
75822;BMP180;64454;51.984;9.838;2022-11-09T09:08:38;99459.00;;;15.80
75822;BMP180;64454;51.984;9.838;2022-11-09T09:11:05;99444.00;;;16.40
75822;BMP180;64454;51.984;9.838;2022-11-09T09:13:34;99451.00;;;17.40
75822;BMP180;64454;51.984;9.838;2022-11-09T09:16:09;99447.00;;;17.10
75822;BMP180;64454;51.984;9.838;2022-11-09T09:18:37;99462.00;;;18.20
75822;BMP180;64454;51.984;9.838;2022-11-09T09:21:08;99451.00;;;18.40
75822;BMP180;64454;51.984;9.838;2022-11-09T09:23:36;99469.00;;;18.10
75822;BMP180;64454;51.984;9.838;2022-11-09T09:26:03;99468.00;;;16.70
75822;BMP180;64454;51.984;9.838;2022-11-09T09:28:30;99484.00;;;16.60
75822;BMP180;64454;51.984;9.838;2022-11-09T09:30:59;99465.00;;;16.10
75822;BMP180;64454;51.984;9.838;2022-11-09T09:33:27;99484.00;;;15.70
75822;BMP180;64454;51.984;9.838;2022-11-09T09:35:54;99490.00;;;15.90
75822;BMP180;64454;51.984;9.838;2022-11-09T09:38:22;99456.00;;;16.20
75822;BMP180;64454;51.984;9.838;2022-11-09T09:40:56;99454.00;;;17.60
75822;BMP180;64454;51.984;9.838;2022-11-09T09:43:29;99443.00;;;19.40
75822;BMP180;64454;51.984;9.838;2022-11-09T09:46:01;99458.00;;;21.10
75822;BMP180;64454;51.984;9.838;2022-11-09T09:48:36;99485.00;;;21.80
75822;BMP180;64454;51.984;9.838;2022-11-09T09:51:14;99474.00;;;19.90
75822;BMP180;64454;51.984;9.838;2022-11-09T09:53:48;99452.00;;;20.10
75822;BMP180;64454;51.984;9.838;2022-11-09T09:56:20;99488.00;;;18.80
75822;BMP180;64454;51.984;9.838;2022-11-09T09:58:53;99494.00;;;17.50
75822;BMP180;64454;51.984;9.838;2022-11-09T10:01:34;99508.00;;;16.80
75822;BMP180;64454;51.984;9.838;2022-11-09T10:04:02;99524.00;;;16.50
75822;BMP180;64454;51.984;9.838;2022-11-09T10:06:41;99508.00;;;16.20
75822;BMP180;64454;51.984;9.838;2022-11-09T10:09:31;99507.00;;;16.50
75822;BMP180;64454;51.984;9.838;2022-11-09T10:12:10;99499.00;;;16.70
75822;BMP180;64454;51.984;9.838;2022-11-09T10:15:00;99475.00;;;18.20
75822;BMP180;64454;51.984;9.838;2022-11-09T10:17:40;99474.00;;;19.20
75822;BMP180;64454;51.984;9.838;2022-11-09T10:20:29;99489.00;;;19.30
75822;BMP180;64454;51.984;9.838;2022-11-09T10:23:18;99478.00;;;18.20
75822;BMP180;64454;51.984;9.838;2022-11-09T10:25:53;99468.00;;;18.80
75822;BMP180;64454;51.984;9.838;2022-11-09T10:28:26;99463.00;;;19.30
75822;BMP180;64454;51.984;9.838;2022-11-09T10:30:54;99463.00;;;19.40
75822;BMP180;64454;51.984;9.838;2022-11-09T10:33:23;99462.00;;;19.60
75822;BMP180;64454;51.984;9.838;2022-11-09T10:36:02;99485.00;;;18.90
75822;BMP180;64454;51.984;9.838;2022-11-09T10:38:39;99451.00;;;19.10
75822;BMP180;64454;51.984;9.838;2022-11-09T10:41:20;99485.00;;;19.20
75822;BMP180;64454;51.984;9.838;2022-11-09T10:43:48;99479.00;;;18.50
75822;BMP180;64454;51.984;9.838;2022-11-09T10:46:15;99493.00;;;18.50
75822;BMP180;64454;51.984;9.838;2022-11-09T10:48:43;99498.00;;;18.10
75822;BMP180;64454;51.984;9.838;2022-11-09T10:51:32;99491.00;;;17.40
75822;BMP180;64454;51.984;9.838;2022-11-09T10:54:20;99489.00;;;17.10
75822;BMP180;64454;51.984;9.838;2022-11-09T10:56:56;99494.00;;;17.20
75822;BMP180;64454;51.984;9.838;2022-11-09T10:59:38;99503.00;;;17.30
75822;BMP180;64454;51.984;9.838;2022-11-09T11:02:40;99492.00;;;17.00
75822;BMP180;64454;51.984;9.838;2022-11-09T11:05:27;99493.00;;;17.20
75822;BMP180;64454;51.984;9.838;2022-11-09T11:07:54;99481.00;;;17.30
75822;BMP180;64454;51.984;9.838;2022-11-09T11:10:22;99477.00;;;17.60
75822;BMP180;64454;51.984;9.838;2022-11-09T11:13:21;99483.00;;;17.70
75822;BMP180;64454;51.984;9.838;2022-11-09T11:15:49;99468.00;;;18.30
75822;BMP180;64454;51.984;9.838;2022-11-09T11:18:20;99474.00;;;18.70
75822;BMP180;64454;51.984;9.838;2022-11-09T11:21:08;99472.00;;;18.60
75822;BMP180;64454;51.984;9.838;2022-11-09T11:23:37;99472.00;;;18.10
75822;BMP180;64454;51.984;9.838;2022-11-09T11:26:26;99463.00;;;18.30
75822;BMP180;64454;51.984;9.838;2022-11-09T11:28:59;99479.00;;;18.30
75822;BMP180;64454;51.984;9.838;2022-11-09T11:31:27;99480.00;;;17.70
75822;BMP180;64454;51.984;9.838;2022-11-09T11:33:55;99468.00;;;17.90
75822;BMP180;64454;51.984;9.838;2022-11-09T11:36:39;99470.00;;;17.80
75822;BMP180;64454;51.984;9.838;2022-11-09T11:39:24;99473.00;;;17.90
75822;BMP180;64454;51.984;9.838;2022-11-09T11:42:19;99457.00;;;18.00
75822;BMP180;64454;51.984;9.838;2022-11-09T11:45:17;99440.00;;;18.60
75822;BMP180;64454;51.984;9.838;2022-11-09T11:48:05;99465.00;;;18.30
75822;BMP180;64454;51.984;9.838;2022-11-09T11:50:43;99435.00;;;18.60
75822;BMP180;64454;51.984;9.838;2022-11-09T11:53:29;99460.00;;;18.90
75822;BMP180;64454;51.984;9.838;2022-11-09T11:56:17;99464.00;;;18.60
75822;BMP180;64454;51.984;9.838;2022-11-09T11:59:17;99461.00;;;18.20
75822;BMP180;64454;51.984;9.838;2022-11-09T12:02:15;99463.00;;;18.80
75822;BMP180;64454;51.984;9.838;2022-11-09T12:05:28;99459.00;;;18.20
75822;BMP180;64454;51.984;9.838;2022-11-09T12:08:10;99456.00;;;18.60
75822;BMP180;64454;51.984;9.838;2022-11-09T12:10:50;99444.00;;;18.10
75822;BMP180;64454;51.984;9.838;2022-11-09T12:13:47;99441.00;;;18.10
75822;BMP180;64454;51.984;9.838;2022-11-09T12:16:23;99458.00;;;19.30
75822;BMP180;64454;51.984;9.838;2022-11-09T12:19:20;99468.00;;;19.80
75822;BMP180;64454;51.984;9.838;2022-11-09T12:22:02;99455.00;;;19.30
75822;BMP180;64454;51.984;9.838;2022-11-09T12:24:38;99467.00;;;19.00
75822;BMP180;64454;51.984;9.838;2022-11-09T12:27:37;99476.00;;;19.20
75822;BMP180;64454;51.984;9.838;2022-11-09T12:30:14;99471.00;;;18.40
75822;BMP180;64454;51.984;9.838;2022-11-09T12:32:51;99475.00;;;18.30
75822;BMP180;64454;51.984;9.838;2022-11-09T12:35:28;99472.00;;;17.80
75822;BMP180;64454;51.984;9.838;2022-11-09T12:38:02;99481.00;;;18.00
75822;BMP180;64454;51.984;9.838;2022-11-09T12:40:34;99444.00;;;17.90
75822;BMP180;64454;51.984;9.838;2022-11-09T12:43:15;99469.00;;;17.90
75822;BMP180;64454;51.984;9.838;2022-11-09T12:45:45;99470.00;;;18.60
75822;BMP180;64454;51.984;9.838;2022-11-09T12:48:23;99476.00;;;18.70
75822;BMP180;64454;51.984;9.838;2022-11-09T12:50:51;99471.00;;;18.50
75822;BMP180;64454;51.984;9.838;2022-11-09T12:53:23;99468.00;;;18.10
75822;BMP180;64454;51.984;9.838;2022-11-09T12:55:54;99472.00;;;17.90
75822;BMP180;64454;51.984;9.838;2022-11-09T12:58:27;99474.00;;;18.00
75822;BMP180;64454;51.984;9.838;2022-11-09T13:00:56;99482.00;;;17.40
75822;BMP180;64454;51.984;9.838;2022-11-09T13:03:28;99490.00;;;17.30
75822;BMP180;64454;51.984;9.838;2022-11-09T13:06:15;99479.00;;;17.50
75822;BMP180;64454;51.984;9.838;2022-11-09T13:08:56;99476.00;;;17.40
75822;BMP180;64454;51.984;9.838;2022-11-09T13:11:37;99494.00;;;17.60
75822;BMP180;64454;51.984;9.838;2022-11-09T13:14:42;99491.00;;;17.90
75822;BMP180;64454;51.984;9.838;2022-11-09T13:18:00;99490.00;;;17.90
75822;BMP180;64454;51.984;9.838;2022-11-09T13:20:43;99490.00;;;17.70
75822;BMP180;64454;51.984;9.838;2022-11-09T13:23:35;99489.00;;;17.40
75822;BMP180;64454;51.984;9.838;2022-11-09T13:26:04;99482.00;;;17.80
75822;BMP180;64454;51.984;9.838;2022-11-09T13:29:17;99488.00;;;17.40
75822;BMP180;64454;51.984;9.838;2022-11-09T13:32:29;99485.00;;;17.40
75822;BMP180;64454;51.984;9.838;2022-11-09T13:34:59;99494.00;;;17.40
75822;BMP180;64454;51.984;9.838;2022-11-09T13:37:53;99491.00;;;17.10
75822;BMP180;64454;51.984;9.838;2022-11-09T13:40:42;99500.00;;;17.30
75822;BMP180;64454;51.984;9.838;2022-11-09T13:43:23;99504.00;;;17.20
75822;BMP180;64454;51.984;9.838;2022-11-09T13:45:54;99521.00;;;16.90
75822;BMP180;64454;51.984;9.838;2022-11-09T13:48:38;99518.00;;;17.00
75822;BMP180;64454;51.984;9.838;2022-11-09T13:51:10;99528.00;;;16.80
75822;BMP180;64454;51.984;9.838;2022-11-09T13:53:52;99535.00;;;16.80
75822;BMP180;64454;51.984;9.838;2022-11-09T13:56:30;99538.00;;;16.60
75822;BMP180;64454;51.984;9.838;2022-11-09T13:59:06;99564.00;;;16.60
75822;BMP180;64454;51.984;9.838;2022-11-09T14:01:46;99582.00;;;16.50
75822;BMP180;64454;51.984;9.838;2022-11-09T14:04:23;99616.00;;;16.00
75822;BMP180;64454;51.984;9.838;2022-11-09T14:07:00;99597.00;;;15.30
75822;BMP180;64454;51.984;9.838;2022-11-09T14:09:37;99569.00;;;15.10
75822;BMP180;64454;51.984;9.838;2022-11-09T14:12:22;99573.00;;;15.00
75822;BMP180;64454;51.984;9.838;2022-11-09T14:15:13;99570.00;;;14.90
75822;BMP180;64454;51.984;9.838;2022-11-09T14:17:55;99562.00;;;14.80
75822;BMP180;64454;51.984;9.838;2022-11-09T14:20:36;99561.00;;;14.90
75822;BMP180;64454;51.984;9.838;2022-11-09T14:23:15;99572.00;;;15.10
75822;BMP180;64454;51.984;9.838;2022-11-09T14:25:43;99573.00;;;14.80
75822;BMP180;64454;51.984;9.838;2022-11-09T14:28:21;99573.00;;;15.00
75822;BMP180;64454;51.984;9.838;2022-11-09T14:30:48;99562.00;;;15.10
75822;BMP180;64454;51.984;9.838;2022-11-09T14:33:22;99575.00;;;15.10
75822;BMP180;64454;51.984;9.838;2022-11-09T14:35:52;99568.00;;;14.60
75822;BMP180;64454;51.984;9.838;2022-11-09T14:38:24;99572.00;;;15.10